createdAt,value
2019-06-27T00:02:15.894Z,72.22
2019-06-27T00:04:54.403Z,72.24
2019-06-27T00:07:33.067Z,72.54
2019-06-27T00:10:08.353Z,73.23
2019-06-27T00:12:45.773Z,73.31
2019-06-27T00:15:28.614Z,73.22
2019-06-27T00:18:07.982Z,72.72
2019-06-27T00:21:01.586Z,73.08
2019-06-27T00:23:37.358Z,72.83
2019-06-27T00:26:08.610Z,73.17
2019-06-27T00:28:39.919Z,73.23
2019-06-27T00:31:11.268Z,73.77
2019-06-27T00:33:42.529Z,73.67
2019-06-27T00:36:14.007Z,73.68
2019-06-27T00:38:45.279Z,73.53
2019-06-27T00:41:16.466Z,73.27
2019-06-27T00:43:47.770Z,73.50
2019-06-27T00:46:19.070Z,72.72
2019-06-27T00:48:50.261Z,72.98
2019-06-27T00:51:21.421Z,73.48
2019-06-27T00:53:52.720Z,73.79
2019-06-27T00:56:24.010Z,74.17
2019-06-27T00:58:55.311Z,74.01
2019-06-27T01:01:26.608Z,74.85
2019-06-27T01:03:57.869Z,75.07
2019-06-27T01:06:29.168Z,74.98
2019-06-27T01:09:02.750Z,75.35
2019-06-27T01:11:34.071Z,75.41
2019-06-27T01:14:07.360Z,75.41
2019-06-27T01:16:38.699Z,75.78
2019-06-27T01:19:10.076Z,75.82
2019-06-27T01:21:41.441Z,76.13
2019-06-27T01:24:12.750Z,76.46
2019-06-27T01:26:44.034Z,75.48
2019-06-27T01:29:15.290Z,75.53
2019-06-27T01:31:46.705Z,75.45
2019-06-27T01:34:18.012Z,75.39
2019-06-27T01:36:49.356Z,75.08
2019-06-27T01:39:20.594Z,75.03
2019-06-27T01:41:51.843Z,75.09
2019-06-27T01:44:44.493Z,74.90
2019-06-27T01:47:15.715Z,73.87
2019-06-27T01:49:47.011Z,73.62
2019-06-27T01:52:18.309Z,74.07
2019-06-27T01:54:49.645Z,74.04
2019-06-27T01:57:20.868Z,73.57
2019-06-27T01:59:52.186Z,74.10
2019-06-27T02:02:23.425Z,74.24
2019-06-27T02:04:54.728Z,74.04
2019-06-27T02:07:25.978Z,74.32
2019-06-27T02:09:57.241Z,74.75
2019-06-27T02:12:28.532Z,74.41
2019-06-27T02:14:59.977Z,74.54
2019-06-27T02:17:31.301Z,74.55
2019-06-27T02:20:02.598Z,74.71
2019-06-27T02:22:33.979Z,74.87
2019-06-27T02:25:06.116Z,74.23
2019-06-27T02:27:37.474Z,73.89
2019-06-27T02:30:09.354Z,74.04
2019-06-27T02:32:40.647Z,74.74
2019-06-27T02:35:12.313Z,74.19
2019-06-27T02:37:43.621Z,74.42
2019-06-27T02:40:15.057Z,73.74
2019-06-27T02:42:46.349Z,73.57
2019-06-27T02:45:17.827Z,73.50
2019-06-27T02:47:49.072Z,74.20
2019-06-27T02:50:20.415Z,73.71
2019-06-27T02:52:51.703Z,73.19
2019-06-27T02:55:22.943Z,73.44
2019-06-27T02:57:54.337Z,72.69
2019-06-27T03:00:25.900Z,72.61
2019-06-27T03:02:57.305Z,72.99
2019-06-27T03:05:28.541Z,73.03
2019-06-27T03:07:59.943Z,73.32
2019-06-27T03:10:31.247Z,73.48
2019-06-27T03:13:02.517Z,73.30
2019-06-27T03:15:33.805Z,73.24
2019-06-27T03:18:05.151Z,73.51
2019-06-27T03:20:36.475Z,73.00
2019-06-27T03:23:07.766Z,72.80
2019-06-27T03:25:38.980Z,73.00
2019-06-27T03:28:10.263Z,73.29
2019-06-27T03:30:41.559Z,72.52
2019-06-27T03:33:12.933Z,72.48
2019-06-27T03:35:44.090Z,72.47
2019-06-27T03:38:15.406Z,71.57
2019-06-27T03:40:46.584Z,72.02
2019-06-27T03:43:17.859Z,72.15
2019-06-27T03:45:49.209Z,72.45
2019-06-27T03:48:20.505Z,72.29
2019-06-27T03:50:55.905Z,72.96
2019-06-27T03:53:24.712Z,71.93
2019-06-27T03:55:56.106Z,72.05
2019-06-27T03:58:27.439Z,71.52
2019-06-27T04:00:58.768Z,71.41
2019-06-27T04:03:30.088Z,71.11
2019-06-27T04:06:01.462Z,70.76
2019-06-27T04:08:32.823Z,71.01
2019-06-27T04:11:04.218Z,71.23
2019-06-27T04:13:35.487Z,71.51
2019-06-27T04:16:06.732Z,71.51
2019-06-27T04:18:38.029Z,71.21
2019-06-27T04:21:09.310Z,71.45
2019-06-27T04:23:40.605Z,71.66
2019-06-27T04:26:11.929Z,71.52
2019-06-27T04:28:43.218Z,70.63
2019-06-27T04:31:14.490Z,71.00
2019-06-27T04:33:45.758Z,71.13
2019-06-27T04:36:17.040Z,71.44
2019-06-27T04:38:51.409Z,70.38
2019-06-27T04:41:22.728Z,69.72
2019-06-27T04:43:54.073Z,70.04
2019-06-27T04:46:25.370Z,69.62
2019-06-27T04:48:56.643Z,69.80
2019-06-27T04:51:28.203Z,68.72
2019-06-27T04:53:59.537Z,69.36
2019-06-27T04:56:30.789Z,68.80
2019-06-27T04:59:02.149Z,68.77
2019-06-27T05:01:33.398Z,68.15
2019-06-27T05:04:04.846Z,68.70
2019-06-27T05:06:36.273Z,68.07
2019-06-27T05:09:22.481Z,67.54
2019-06-27T05:11:53.777Z,67.69
2019-06-27T05:14:27.402Z,68.09
2019-06-27T05:16:58.704Z,67.79
2019-06-27T05:19:29.959Z,67.12
2019-06-27T05:22:01.346Z,66.62
2019-06-27T05:24:32.627Z,67.34
2019-06-27T05:27:04.096Z,66.91
2019-06-27T05:29:35.464Z,67.19
2019-06-27T05:32:06.863Z,66.27
2019-06-27T05:34:38.200Z,66.37
2019-06-27T05:37:09.333Z,66.34
2019-06-27T05:39:40.540Z,63.78
2019-06-27T05:42:11.958Z,63.17
2019-06-27T05:44:43.317Z,62.65
2019-06-27T05:47:14.898Z,63.09
2019-06-27T05:49:46.454Z,62.41
2019-06-27T05:52:18.071Z,61.40
2019-06-27T05:54:49.658Z,62.00
2019-06-27T05:57:21.337Z,59.46
2019-06-27T05:59:52.641Z,55.90
2019-06-27T06:02:23.940Z,55.35
2019-06-27T06:04:55.269Z,55.56
2019-06-27T06:07:26.511Z,51.89
2019-06-27T06:09:57.765Z,47.80
2019-06-27T06:12:29.130Z,43.54
2019-06-27T06:15:00.464Z,44.45
2019-06-27T06:17:31.802Z,46.37
2019-06-27T06:20:03.186Z,45.69
2019-06-27T06:22:34.524Z,44.99
2019-06-27T06:25:05.905Z,43.79
2019-06-27T06:27:37.331Z,45.04
2019-06-27T06:30:09.540Z,44.02
2019-06-27T06:32:40.842Z,44.99
2019-06-27T06:35:12.365Z,43.47
2019-06-27T06:37:43.680Z,42.55
2019-06-27T06:40:16.472Z,42.46
2019-06-27T06:42:49.601Z,43.13
2019-06-27T06:45:20.928Z,41.84
2019-06-27T06:47:52.374Z,41.77
2019-06-27T06:50:23.701Z,44.60
2019-06-27T06:52:55.585Z,44.46
2019-06-27T06:55:26.872Z,47.11
2019-06-27T06:57:58.115Z,44.50
2019-06-27T07:00:29.633Z,43.89
2019-06-27T07:03:00.836Z,41.98
2019-06-27T07:05:32.106Z,43.26
2019-06-27T07:08:03.353Z,44.40
2019-06-27T07:10:34.565Z,45.61
2019-06-27T07:13:05.900Z,41.72
2019-06-27T07:15:37.168Z,40.01
2019-06-27T07:18:08.495Z,39.38
2019-06-27T07:20:39.775Z,40.55
2019-06-27T07:23:11.073Z,39.01
2019-06-27T07:25:42.355Z,37.62
2019-06-27T07:28:13.603Z,38.97
2019-06-27T07:30:44.956Z,39.37
2019-06-27T07:33:16.179Z,38.99
2019-06-27T07:35:47.397Z,38.46
2019-06-27T07:38:18.768Z,39.05
2019-06-27T07:40:50.022Z,39.39
2019-06-27T07:43:21.181Z,38.21
2019-06-27T07:45:52.331Z,37.42
2019-06-27T07:48:23.981Z,37.77
2019-06-27T07:50:55.266Z,38.28
2019-06-27T07:53:26.541Z,38.07
2019-06-27T07:55:57.766Z,37.13
2019-06-27T07:58:28.967Z,38.33
2019-06-27T08:01:00.333Z,38.26
2019-06-27T08:03:31.670Z,35.72
2019-06-27T08:06:03.005Z,36.62
2019-06-27T08:08:34.328Z,37.58
2019-06-27T08:11:05.808Z,36.48
2019-06-27T08:13:37.019Z,36.80
2019-06-27T08:16:08.304Z,38.28
2019-06-27T08:18:39.725Z,37.22
2019-06-27T08:21:11.120Z,37.23
2019-06-27T08:23:42.593Z,36.51
2019-06-27T08:26:13.968Z,36.04
2019-06-27T08:28:45.309Z,35.57
2019-06-27T08:31:16.584Z,34.07
2019-06-27T08:33:47.880Z,36.14
2019-06-27T08:36:19.212Z,36.06
2019-06-27T08:38:50.518Z,37.20
2019-06-27T08:41:21.688Z,37.84
2019-06-27T08:43:53.286Z,35.80
2019-06-27T08:46:24.598Z,36.89
2019-06-27T08:48:59.018Z,34.97
2019-06-27T08:51:30.362Z,34.88
2019-06-27T08:54:01.661Z,36.10
2019-06-27T08:56:32.963Z,36.80
2019-06-27T08:59:04.364Z,37.17
2019-06-27T09:01:35.733Z,37.08
2019-06-27T09:04:06.939Z,36.22
2019-06-27T09:06:38.392Z,38.24
2019-06-27T09:09:09.682Z,39.69
2019-06-27T09:11:40.991Z,41.23
2019-06-27T09:14:12.407Z,38.08
2019-06-27T09:16:46.572Z,35.19
2019-06-27T09:19:16.489Z,36.67
2019-06-27T09:21:47.734Z,36.26
2019-06-27T09:24:19.041Z,36.96
2019-06-27T09:26:50.316Z,36.68
2019-06-27T09:29:21.643Z,37.66
2019-06-27T09:31:52.991Z,37.34
2019-06-27T09:34:24.325Z,36.22
2019-06-27T09:36:55.656Z,35.77
2019-06-27T09:39:27.180Z,37.14
2019-06-27T09:41:58.544Z,36.92
2019-06-27T09:44:29.944Z,37.87
2019-06-27T09:47:03.310Z,36.62
2019-06-27T09:49:34.599Z,36.39
2019-06-27T09:52:05.884Z,37.16
2019-06-27T09:54:37.219Z,36.00
2019-06-27T09:57:08.477Z,37.19
2019-06-27T09:59:39.991Z,36.67
2019-06-27T10:02:11.282Z,37.59
2019-06-27T10:04:42.542Z,39.66
2019-06-27T10:07:13.812Z,40.75
2019-06-27T10:09:45.226Z,41.16
2019-06-27T10:12:21.025Z,40.89
2019-06-27T10:14:55.282Z,41.34
2019-06-27T10:17:26.554Z,41.55
2019-06-27T10:19:58.086Z,43.36
2019-06-27T10:22:29.644Z,43.22
2019-06-27T10:25:00.833Z,42.99
2019-06-27T10:27:32.366Z,42.14
2019-06-27T10:30:06.998Z,42.83
2019-06-27T10:32:38.858Z,42.00
2019-06-27T10:35:11.138Z,41.53
2019-06-27T10:37:42.614Z,41.86
2019-06-27T10:40:15.448Z,41.13
2019-06-27T10:43:05.733Z,39.63
2019-06-27T10:45:38.113Z,41.00
2019-06-27T10:48:09.528Z,40.21
2019-06-27T10:50:40.966Z,40.73
2019-06-27T10:53:12.218Z,40.01
2019-06-27T10:55:46.286Z,40.68
2019-06-27T10:58:17.677Z,40.41
2019-06-27T11:00:48.986Z,40.26
2019-06-27T11:03:20.296Z,38.46
2019-06-27T11:05:51.679Z,39.51
2019-06-27T11:08:22.921Z,40.29
2019-06-27T11:10:54.237Z,39.20
2019-06-27T11:13:25.539Z,40.04
2019-06-27T11:15:56.852Z,40.08
2019-06-27T11:18:28.141Z,40.21
2019-06-27T11:20:59.353Z,39.91
2019-06-27T11:23:30.662Z,39.00
2019-06-27T11:26:01.933Z,40.45
2019-06-27T11:28:33.113Z,39.00
2019-06-27T11:31:05.929Z,38.13
2019-06-27T11:33:37.087Z,37.31
2019-06-27T11:36:08.819Z,37.62
2019-06-27T11:38:40.042Z,37.76
2019-06-27T11:41:11.496Z,37.01
2019-06-27T11:43:45.333Z,37.63
2019-06-27T11:46:16.543Z,36.99
2019-06-27T11:48:47.778Z,35.03
2019-06-27T11:51:18.995Z,38.45
2019-06-27T11:53:53.488Z,37.43
2019-06-27T11:56:24.684Z,39.21
2019-06-27T11:58:55.893Z,37.70
2019-06-27T12:01:27.141Z,36.41
2019-06-27T12:03:58.411Z,37.84
2019-06-27T12:06:29.757Z,37.69
2019-06-27T12:09:01.006Z,37.65
2019-06-27T12:11:32.338Z,37.76
2019-06-27T12:14:03.621Z,36.26
2019-06-27T12:16:34.874Z,37.96
2019-06-27T12:19:07.595Z,37.90
2019-06-27T12:21:41.172Z,37.26
2019-06-27T12:24:12.461Z,37.59
2019-06-27T12:26:43.655Z,37.34
2019-06-27T12:29:14.949Z,38.27
2019-06-27T12:31:46.272Z,37.75
2019-06-27T12:34:17.568Z,37.65
2019-06-27T12:36:48.746Z,37.33
2019-06-27T12:39:20.019Z,38.06
2019-06-27T12:41:51.284Z,37.54
2019-06-27T12:44:22.502Z,36.91
2019-06-27T12:46:53.768Z,39.08
2019-06-27T12:49:44.500Z,39.56
2019-06-27T12:51:59.539Z,36.31
2019-06-27T12:54:30.800Z,38.13
2019-06-27T12:57:02.096Z,38.15
2019-06-27T12:59:33.404Z,38.09
2019-06-27T13:02:04.625Z,37.79
2019-06-27T13:04:36.008Z,36.11
2019-06-27T13:07:07.439Z,37.87
2019-06-27T13:09:38.656Z,37.69
2019-06-27T13:12:10.012Z,37.68
2019-06-27T13:14:41.308Z,37.18
2019-06-27T13:17:12.671Z,37.64
2019-06-27T13:19:43.987Z,38.82
2019-06-27T13:22:15.286Z,38.70
2019-06-27T13:24:46.682Z,37.77
2019-06-27T13:27:18.008Z,37.62
2019-06-27T13:29:49.282Z,38.49
2019-06-27T13:32:20.557Z,35.22
2019-06-27T13:34:51.842Z,36.71
2019-06-27T13:37:23.119Z,37.55
2019-06-27T13:39:54.431Z,35.79
2019-06-27T13:42:25.657Z,36.00
2019-06-27T13:44:57.105Z,36.29
2019-06-27T13:47:28.363Z,36.59
2019-06-27T13:49:59.635Z,37.34
2019-06-27T13:52:30.820Z,36.38
2019-06-27T13:55:02.115Z,37.91
2019-06-27T13:57:33.489Z,37.60
2019-06-27T14:00:05.264Z,38.40
2019-06-27T14:02:36.457Z,38.60
2019-06-27T14:05:07.898Z,37.77
2019-06-27T14:07:39.280Z,39.11
2019-06-27T14:10:10.971Z,38.87
2019-06-27T14:12:44.724Z,39.58
2019-06-27T14:15:15.655Z,37.02
2019-06-27T14:17:46.949Z,38.38
2019-06-27T14:20:18.507Z,37.24
2019-06-27T14:22:49.791Z,38.26
2019-06-27T14:25:21.063Z,37.17
2019-06-27T14:27:52.273Z,37.44
2019-06-27T14:30:23.775Z,37.71
2019-06-27T14:32:55.057Z,36.74
2019-06-27T14:35:26.675Z,36.76
2019-06-27T14:37:57.929Z,37.15
2019-06-27T14:40:29.248Z,36.04
2019-06-27T14:43:03.222Z,35.43
2019-06-27T14:45:34.520Z,36.78
2019-06-27T14:48:05.777Z,35.65
2019-06-27T14:50:37.536Z,36.79
2019-06-27T14:53:08.705Z,35.18
2019-06-27T14:55:39.869Z,36.38
2019-06-27T14:58:11.141Z,34.59
2019-06-27T15:00:42.542Z,34.16
2019-06-27T15:03:13.890Z,34.31
2019-06-27T15:05:45.270Z,34.93
2019-06-27T15:08:16.454Z,33.91
2019-06-27T15:10:47.709Z,32.32
2019-06-27T15:13:19.102Z,33.26
2019-06-27T15:15:50.352Z,33.29
2019-06-27T15:18:21.730Z,33.41
2019-06-27T15:20:53.223Z,33.86
2019-06-27T15:23:24.491Z,34.79
2019-06-27T15:25:55.801Z,33.82
2019-06-27T15:28:27.028Z,33.26
2019-06-27T15:31:00.942Z,31.04
2019-06-27T15:33:41.297Z,31.50
2019-06-27T15:36:10.691Z,30.84
2019-06-27T15:38:41.934Z,30.50
2019-06-27T15:41:13.211Z,30.15
2019-06-27T15:43:44.545Z,29.33
2019-06-27T15:46:15.822Z,29.90
2019-06-27T15:48:47.158Z,30.99
2019-06-27T15:51:18.446Z,30.23
2019-06-27T15:53:49.779Z,30.02
2019-06-27T15:56:21.068Z,30.50
2019-06-27T15:58:52.363Z,30.15
2019-06-27T16:01:23.617Z,28.90
2019-06-27T16:03:54.912Z,29.59
2019-06-27T16:06:26.371Z,29.07
2019-06-27T16:08:57.669Z,29.43
2019-06-27T16:11:29.012Z,30.52
2019-06-27T16:14:00.270Z,29.95
2019-06-27T16:16:32.167Z,29.95
2019-06-27T16:19:08.256Z,30.04
2019-06-27T16:21:41.533Z,30.24
2019-06-27T16:28:05.743Z,29.88
2019-06-27T16:31:09.728Z,29.02
2019-06-27T16:33:41.047Z,28.96
2019-06-27T16:36:25.005Z,29.74
2019-06-27T16:38:45.413Z,29.57
2019-06-27T16:41:16.676Z,30.03
2019-06-27T16:43:47.939Z,30.73
2019-06-27T16:46:19.290Z,31.62
2019-06-27T16:48:50.685Z,32.53
2019-06-27T16:51:22.011Z,32.72
2019-06-27T16:53:53.279Z,34.15
2019-06-27T16:56:24.542Z,35.72
2019-06-27T16:58:58.261Z,36.46
2019-06-27T17:01:29.647Z,36.94
2019-06-27T17:04:02.233Z,37.28
2019-06-27T17:06:41.975Z,38.80
2019-06-27T17:09:08.149Z,38.54
2019-06-27T17:11:39.303Z,38.63
2019-06-27T17:14:10.549Z,39.88
2019-06-27T17:16:41.849Z,39.10
2019-06-27T17:19:13.211Z,39.80
2019-06-27T17:21:44.514Z,39.57
2019-06-27T17:24:37.087Z,40.95
2019-06-27T17:27:08.689Z,42.07
2019-06-27T17:29:40.056Z,41.51
2019-06-27T17:32:11.509Z,42.36
2019-06-27T17:34:42.940Z,42.14
2019-06-27T17:37:14.222Z,42.79
2019-06-27T17:39:45.511Z,43.17
2019-06-27T17:42:16.721Z,43.09
2019-06-27T17:44:48.019Z,43.15
2019-06-27T17:47:20.378Z,44.90
2019-06-27T17:49:51.792Z,43.92
2019-06-27T17:52:23.089Z,44.39
2019-06-27T17:54:56.841Z,43.69
2019-06-27T17:57:40.599Z,43.74
2019-06-27T18:00:12.243Z,44.85
2019-06-27T18:02:43.586Z,44.49
2019-06-27T18:05:18.147Z,44.79
2019-06-27T18:07:48.227Z,45.23
2019-06-27T18:10:20.688Z,46.36
2019-06-27T18:12:51.808Z,45.40
2019-06-27T18:15:23.415Z,46.24
2019-06-27T18:17:54.872Z,46.26
2019-06-27T18:20:26.067Z,46.42
2019-06-27T18:22:57.416Z,46.31
2019-06-27T18:25:28.831Z,46.58
2019-06-27T18:28:00.095Z,47.60
2019-06-27T18:30:31.545Z,46.82
2019-06-27T18:33:02.888Z,48.08
2019-06-27T18:35:35.394Z,49.18
2019-06-27T18:38:14.931Z,48.11
2019-06-27T18:40:46.364Z,48.04
2019-06-27T18:43:17.661Z,49.32
2019-06-27T18:45:48.937Z,49.30
2019-06-27T18:48:20.104Z,50.14
2019-06-27T18:50:51.550Z,50.64
2019-06-27T18:53:22.852Z,50.63
2019-06-27T18:55:55.801Z,51.07
2019-06-27T18:58:30.257Z,51.56
2019-06-27T19:01:03.286Z,51.56
2019-06-27T19:03:35.535Z,52.52
2019-06-27T19:06:06.889Z,52.26
2019-06-27T19:08:38.299Z,52.68
2019-06-27T19:11:09.551Z,53.11
2019-06-27T19:13:40.667Z,53.06
2019-06-27T19:16:11.873Z,52.72
2019-06-27T19:18:54.767Z,52.48
2019-06-27T19:21:56.681Z,52.89
2019-06-27T19:24:42.617Z,53.24
2019-06-27T19:27:13.880Z,53.32
2019-06-27T19:29:45.505Z,53.87
2019-06-27T19:32:16.738Z,53.90
2019-06-27T19:34:48.000Z,54.13
2019-06-27T19:37:19.156Z,54.20
2019-06-27T19:39:50.388Z,54.64
2019-06-27T19:42:21.691Z,54.28
2019-06-27T19:44:53.001Z,54.78
2019-06-27T19:47:24.229Z,54.33
2019-06-27T19:49:55.674Z,54.49
2019-06-27T19:52:26.903Z,54.37
2019-06-27T19:54:58.180Z,54.65
2019-06-27T19:57:29.422Z,54.42
2019-06-27T20:00:00.694Z,54.91
2019-06-27T20:02:36.079Z,54.74
2019-06-27T20:05:05.162Z,55.62
2019-06-27T20:07:36.566Z,55.33
2019-06-27T20:10:11.888Z,55.96
2019-06-27T20:12:42.648Z,55.55
2019-06-27T20:15:14.103Z,56.01
2019-06-27T20:17:45.351Z,55.60
2019-06-27T20:20:17.026Z,56.21
2019-06-27T20:22:48.400Z,56.04
2019-06-27T20:25:19.873Z,56.20
2019-06-27T20:27:51.185Z,56.32
2019-06-27T20:30:23.150Z,56.55
2019-06-27T20:32:54.705Z,57.00
2019-06-27T20:35:26.048Z,57.50
2019-06-27T20:37:58.406Z,58.00
2019-06-27T20:40:30.502Z,57.88
2019-06-27T20:43:03.429Z,58.25
2019-06-27T20:45:35.012Z,58.48
2019-06-27T20:48:06.318Z,58.74
2019-06-27T20:50:39.094Z,58.73
2019-06-27T20:53:10.417Z,58.90
2019-06-27T20:55:41.868Z,59.08
2019-06-27T20:58:16.608Z,59.21
2019-06-27T21:00:47.903Z,59.17
2019-06-27T21:03:29.033Z,59.58
2019-06-27T21:06:00.756Z,59.62
2019-06-27T21:08:32.215Z,59.92
2019-06-27T21:11:05.760Z,60.32
2019-06-27T21:13:41.616Z,60.41
2019-06-27T21:16:15.214Z,61.02
2019-06-27T21:18:48.359Z,60.92
2019-06-27T21:21:19.553Z,60.88
2019-06-27T21:23:50.772Z,61.35
2019-06-27T21:26:22.002Z,61.08
2019-06-27T21:28:53.450Z,61.40
2019-06-27T21:31:24.722Z,61.79
2019-06-27T21:33:56.437Z,61.94
2019-06-27T21:36:27.651Z,61.85
2019-06-27T21:39:07.704Z,61.99
2019-06-27T21:41:33.011Z,62.01
2019-06-27T21:44:04.306Z,62.19
2019-06-27T21:46:35.602Z,62.33
2019-06-27T21:49:06.861Z,62.23
2019-06-27T21:51:38.296Z,62.58
2019-06-27T21:54:09.618Z,62.85
2019-06-27T21:56:41.373Z,63.89
2019-06-27T21:59:12.652Z,63.59
2019-06-27T22:01:46.021Z,63.46
2019-06-27T22:04:19.598Z,63.58
2019-06-27T22:06:51.004Z,63.56
2019-06-27T22:09:25.096Z,63.93
2019-06-27T22:11:55.399Z,63.97
2019-06-27T22:14:26.601Z,64.38
2019-06-27T22:16:57.871Z,64.22
2019-06-27T22:19:29.167Z,64.47
2019-06-27T22:22:00.562Z,64.69
2019-06-27T22:24:32.102Z,64.92
2019-06-27T22:27:03.548Z,65.07
2019-06-27T22:29:34.902Z,65.67
2019-06-27T22:32:06.238Z,65.18
2019-06-27T22:34:37.600Z,65.73
2019-06-27T22:37:09.883Z,65.76
2019-06-27T22:39:58.633Z,65.87
2019-06-27T22:42:47.514Z,66.12
2019-06-27T22:45:36.778Z,66.40
2019-06-27T22:48:12.735Z,67.37
2019-06-27T22:50:59.709Z,67.26
2019-06-27T22:53:33.971Z,67.59
2019-06-27T22:56:05.531Z,67.74
2019-06-27T22:58:36.824Z,67.75
2019-06-27T23:01:09.281Z,67.91
2019-06-27T23:03:41.507Z,68.01
2019-06-27T23:06:13.928Z,68.18
2019-06-27T23:08:46.071Z,68.21
2019-06-27T23:11:17.433Z,68.60
2019-06-27T23:13:49.655Z,68.78
2019-06-27T23:16:21.851Z,68.54
2019-06-27T23:18:53.813Z,68.80
2019-06-27T23:21:26.288Z,68.93
2019-06-27T23:23:59.300Z,69.29
2019-06-27T23:26:31.736Z,69.48
2019-06-27T23:29:03.280Z,69.35
2019-06-27T23:31:34.741Z,69.51
2019-06-27T23:34:11.194Z,69.47
2019-06-27T23:36:53.042Z,69.50
2019-06-27T23:39:24.237Z,69.53
2019-06-27T23:41:55.787Z,69.79
2019-06-27T23:47:05.158Z,70.20
2019-06-27T23:49:36.440Z,70.15
2019-06-27T23:52:07.853Z,70.04
2019-06-27T23:54:39.127Z,70.38
2019-06-27T23:57:10.801Z,70.32
2019-06-27T23:59:42.042Z,70.74
